Time;durP1;ratioP1;P1;durP2;ratioP2;P2;SDS_P1;SDS_P2;PMS_P1;PMS_P2;Temp;Humidity;BMP_temperature;BMP_pressure;BME280_temperature;BME280_humidity;BME280_pressure;Samples;Min_cycle;Max_cycle;Signal;HPM_P1;HPM_P2
2022/04/29 00:00:48;;;;;;;1.93;1.83;;;9.70;67.60;9.10;99308.00;;;;5134140;28;20236;-80
2022/04/29 00:03:18;;;;;;;1.47;1.37;;;9.70;68.30;9.10;99308.00;;;;5134360;28;20228;-79
2022/04/29 00:05:46;;;;;;;1.03;1.03;;;9.70;67.80;8.90;99317.00;;;;5134095;28;20259;-80
2022/04/29 00:08:13;;;;;;;0.87;0.87;;;9.60;68.20;8.60;99310.00;;;;5133935;28;20221;-80
2022/04/29 00:10:42;;;;;;;0.80;0.80;;;9.50;68.70;8.80;99269.00;;;;5134080;28;20236;-80
2022/04/29 00:13:14;;;;;;;0.80;0.80;;;9.50;68.90;8.80;99291.00;;;;5115907;28;20714;-80
2022/04/29 00:15:41;;;;;;;0.90;0.90;;;9.50;68.70;8.60;99289.00;;;;5134033;28;20277;-80
2022/04/29 00:18:08;;;;;;;2.03;1.27;;;9.40;69.70;8.70;99282.00;;;;5134022;28;20616;-79
2022/04/29 00:20:35;;;;;;;0.73;0.73;;;9.40;69.50;8.70;99290.00;;;;5133830;28;20679;-80
2022/04/29 00:23:02;;;;;;;0.90;0.90;;;9.40;69.30;8.60;99287.00;;;;5133955;28;20209;-80
2022/04/29 00:25:29;;;;;;;1.07;1.07;;;9.30;69.20;8.60;99289.00;;;;5133742;28;20192;-79
2022/04/29 00:27:57;;;;;;;1.30;1.20;;;9.30;69.70;8.60;99284.00;;;;5133846;28;20228;-80
2022/04/29 00:30:24;;;;;;;0.93;0.93;;;9.20;69.60;8.50;99285.00;;;;5135743;27;20221;-80
2022/04/29 00:32:50;;;;;;;0.77;0.77;;;9.30;69.30;8.50;99276.00;;;;5137199;28;20303;-79
2022/04/29 00:35:17;;;;;;;0.80;0.80;;;9.20;69.30;8.50;99276.00;;;;5137577;28;20207;-79
2022/04/29 00:37:45;;;;;;;0.70;0.70;;;9.20;69.40;8.50;99275.00;;;;5137896;28;20199;-79
2022/04/29 00:40:15;;;;;;;1.17;1.00;;;9.10;69.90;8.50;99268.00;;;;5125890;28;20598;-79
2022/04/29 00:42:43;;;;;;;2.40;2.00;;;9.20;69.60;8.40;99251.00;;;;5119251;28;20208;-80
2022/04/29 00:45:11;;;;;;;1.23;1.23;;;9.10;69.90;8.30;99267.00;;;;5119089;28;20201;-80
2022/04/29 00:47:38;;;;;;;1.13;1.03;;;9.10;70.20;8.30;99265.00;;;;5136909;28;20292;-78
2022/04/29 00:50:09;;;;;;;0.80;0.80;;;9.00;70.30;8.30;99261.00;;;;5136897;28;20233;-80
2022/04/29 00:52:40;;;;;;;1.00;1.00;;;9.00;70.00;8.40;99264.00;;;;5137021;28;20300;-79
2022/04/29 00:55:12;;;;;;;0.80;0.80;;;9.10;70.40;8.40;99271.00;;;;5137291;28;20225;-79
2022/04/29 00:57:45;;;;;;;1.20;1.20;;;9.10;70.00;8.40;99262.00;;;;5136964;28;20212;-78
2022/04/29 01:00:16;;;;;;;0.90;0.90;;;9.00;70.30;8.40;99265.00;;;;5136877;28;20224;-79
2022/04/29 01:02:51;;;;;;;0.50;0.50;;;9.00;69.70;8.40;99264.00;;;;5137017;28;20193;-80
2022/04/29 01:05:20;;;;;;;1.00;1.00;;;9.00;69.40;8.30;99271.00;;;;5136845;28;20224;-79
2022/04/29 01:07:48;;;;;;;0.93;0.93;;;9.00;69.40;8.40;99260.00;;;;5136796;28;20213;-79
2022/04/29 01:10:20;;;;;;;0.83;0.83;;;9.00;69.50;8.30;99253.00;;;;5136459;28;20253;-79
2022/04/29 01:12:49;;;;;;;6.83;1.83;;;9.00;69.40;8.20;99246.00;;;;5136857;28;20220;-79
2022/04/29 01:15:19;;;;;;;0.80;0.80;;;;;8.40;99248.00;;;;5136873;28;20274;-78
2022/04/29 01:17:52;;;;;;;1.13;1.13;;;9.00;68.50;8.40;99246.00;;;;5136639;28;20276;-78
2022/04/29 01:20:24;;;;;;;0.90;0.90;;;9.00;69.00;8.10;99224.00;;;;5118149;28;20704;-79
2022/04/29 01:22:51;;;;;;;0.70;0.70;;;8.90;68.50;8.10;99241.00;;;;5136713;28;20205;-79
2022/04/29 01:25:18;;;;;;;0.90;0.90;;;8.80;69.50;8.10;99246.00;;;;5136359;28;20225;-80
2022/04/29 01:27:48;;;;;;;0.90;0.90;;;8.70;69.70;7.90;99244.00;;;;5136327;28;20269;-78
2022/04/29 01:30:16;;;;;;;0.90;0.90;;;8.60;69.90;8.00;99224.00;;;;5118344;28;20207;-79
2022/04/29 01:32:43;;;;;;;1.40;1.40;;;8.60;70.50;7.90;99235.00;;;;5136187;28;20604;-80
2022/04/29 01:35:12;;;;;;;1.03;1.03;;;8.60;70.20;7.90;99241.00;;;;5136419;28;20254;-80
2022/04/29 01:37:39;;;;;;;1.10;1.10;;;8.60;70.60;7.80;99237.00;;;;5136194;28;20273;-78
2022/04/29 01:40:11;;;;;;;0.60;0.60;;;8.50;70.70;7.80;99236.00;;;;5136054;27;20202;-78
2022/04/29 01:42:38;;;;;;;1.30;1.20;;;8.50;70.20;7.80;99197.00;;;;5136152;28;20185;-78
2022/04/29 01:45:08;;;;;;;0.70;0.70;;;8.50;71.10;7.80;99209.00;;;;5135990;28;20282;-79
2022/04/29 01:47:35;;;;;;;1.10;1.10;;;8.40;70.60;7.70;99246.00;;;;5136041;28;20213;-80
2022/04/29 01:50:02;;;;;;;0.70;0.70;;;8.40;70.70;7.70;99243.00;;;;5135958;28;20241;-78
2022/04/29 01:52:28;;;;;;;1.03;0.90;;;8.40;70.00;7.60;99242.00;;;;5135950;28;20312;-79
2022/04/29 01:54:55;;;;;;;0.90;0.90;;;8.30;70.20;7.60;99240.00;;;;5135892;28;20284;-79
2022/04/29 01:57:24;;;;;;;0.83;0.83;;;8.30;70.70;7.50;99247.00;;;;5135961;28;20225;-79
2022/04/29 01:59:51;;;;;;;0.60;0.60;;;8.30;71.70;7.70;99234.00;;;;5135902;28;20487;-79
2022/04/29 02:02:21;;;;;;;1.00;1.00;;;8.30;72.10;7.60;99230.00;;;;5135741;28;20209;-79
2022/04/29 02:04:48;;;;;;;1.10;1.10;;;8.40;71.30;7.60;99237.00;;;;5135678;28;20220;-79
2022/04/29 02:07:15;;;;;;;1.40;1.33;;;8.20;71.90;7.50;99219.00;;;;5135715;28;20204;-79
2022/04/29 02:09:42;;;;;;;0.63;0.63;;;8.20;71.70;7.40;99238.00;;;;5135797;28;20201;-79
2022/04/29 02:12:11;;;;;;;5.00;1.37;;;8.10;71.00;7.30;99239.00;;;;5135551;28;20255;-79
2022/04/29 02:14:41;;;;;;;1.93;1.73;;;8.10;71.50;7.30;99244.00;;;;5135656;28;20232;-80
2022/04/29 02:17:11;;;;;;;0.83;0.83;;;8.00;72.20;7.20;99233.00;;;;5135924;28;20527;-80
2022/04/29 02:19:39;;;;;;;0.80;0.80;;;8.00;72.40;7.20;99223.00;;;;5117563;28;20208;-79
2022/04/29 02:22:09;;;;;;;0.90;0.90;;;8.00;73.00;7.30;99184.00;;;;5117384;28;20209;-80
2022/04/29 02:24:38;;;;;;;1.00;1.00;;;8.00;73.20;7.20;99220.00;;;;5135463;28;20232;-80
2022/04/29 02:27:07;;;;;;;0.90;0.90;;;7.90;72.80;7.40;99223.00;;;;5135517;28;20188;-79
2022/04/29 02:29:36;;;;;;;1.47;1.47;;;8.00;73.20;7.20;99218.00;;;;5135661;28;20228;-79
2022/04/29 02:32:04;;;;;;;1.33;1.33;;;8.00;72.70;7.10;99212.00;;;;5135288;28;20315;-79
2022/04/29 02:34:30;;;;;;;0.60;0.60;;;7.80;72.90;7.10;99204.00;;;;5135301;28;20205;-79
2022/04/29 02:36:57;;;;;;;0.83;0.83;;;7.80;73.20;7.10;99215.00;;;;5135339;28;20280;-79
2022/04/29 02:39:23;;;;;;;0.90;0.90;;;7.80;73.50;7.20;99214.00;;;;5135366;28;20598;-80
2022/04/29 02:41:50;;;;;;;1.23;1.23;;;7.80;73.80;7.00;99204.00;;;;5135234;28;20190;-80
2022/04/29 02:44:16;;;;;;;1.40;1.30;;;7.80;74.30;7.20;99215.00;;;;5135008;28;20204;-78
2022/04/29 02:49:27;;;;;;;1.30;1.23;;;7.80;74.10;7.00;99202.00;;;;5134198;28;20267;-79
2022/04/29 02:51:56;;;;;;;0.50;0.50;;;7.80;73.80;7.10;99212.00;;;;5134635;27;20227;-79
2022/04/29 02:54:23;;;;;;;3.20;1.23;;;7.80;73.90;7.10;99211.00;;;;5135113;28;20213;-77
2022/04/29 02:56:50;;;;;;;2.37;1.33;;;7.80;73.90;7.10;99202.00;;;;5135271;28;20321;-78
2022/04/29 02:59:17;;;;;;;1.00;1.00;;;7.80;73.60;7.00;99197.00;;;;5135300;28;20222;-80
2022/04/29 03:01:47;;;;;;;0.70;0.70;;;7.80;73.70;7.20;99186.00;;;;5135151;28;20561;-80
2022/04/29 03:04:13;;;;;;;0.80;0.80;;;7.80;73.40;7.10;99202.00;;;;5134832;28;20658;-80
2022/04/29 03:06:41;;;;;;;0.80;0.80;;;7.80;73.90;7.10;99198.00;;;;5135059;28;20197;-80
2022/04/29 03:09:07;;;;;;;1.03;1.03;;;7.80;73.60;7.10;99191.00;;;;5116773;28;20230;-82
2022/04/29 03:11:34;;;;;;;0.90;0.90;;;7.70;74.00;7.10;99197.00;;;;5134811;28;20660;-79
2022/04/29 03:14:00;;;;;;;1.07;1.07;;;7.80;74.20;7.10;99199.00;;;;5135316;28;20357;-79
2022/04/29 03:16:27;;;;;;;1.47;1.37;;;7.80;73.80;7.20;99199.00;;;;5135977;28;20201;-79
2022/04/29 03:18:54;;;;;;;1.07;1.07;;;7.80;73.60;7.00;99194.00;;;;5136747;28;20285;-80
2022/04/29 03:21:21;;;;;;;0.70;0.70;;;7.70;73.80;7.00;99192.00;;;;5139403;28;20582;-81
2022/04/29 03:23:48;;;;;;;1.27;1.20;;;7.70;74.00;7.00;99191.00;;;;5142048;28;20215;-79
2022/04/29 03:26:15;;;;;;;0.90;0.90;;;7.80;73.90;7.10;99192.00;;;;5134676;28;20194;-79
2022/04/29 03:28:41;;;;;;;2.13;1.17;;;7.70;74.10;7.10;99190.00;;;;5134657;28;20286;-79
2022/04/29 03:31:08;;;;;;;0.97;0.97;;;7.70;73.70;7.00;99185.00;;;;5134704;28;20672;-79
2022/04/29 03:33:35;;;;;;;1.37;1.37;;;7.70;73.20;6.90;99183.00;;;;5134558;28;20221;-81
2022/04/29 03:36:01;;;;;;;1.00;1.00;;;7.60;73.50;6.80;99184.00;;;;5134805;28;20233;-80
2022/04/29 03:38:28;;;;;;;0.70;0.70;;;7.50;73.70;6.90;99171.00;;;;5134460;28;20235;-80
2022/04/29 03:40:56;;;;;;;0.80;0.80;;;7.60;73.60;6.90;99177.00;;;;5134495;28;20702;-80
2022/04/29 03:43:24;;;;;;;1.67;1.57;;;7.60;73.90;6.90;99175.00;;;;5134242;28;20224;-80
2022/04/29 03:45:53;;;;;;;0.80;0.80;;;7.60;73.60;6.80;99170.00;;;;5134521;28;20208;-81
2022/04/29 03:48:20;;;;;;;1.97;1.87;;;7.60;73.90;6.80;99178.00;;;;5134567;28;20316;-80
2022/04/29 03:50:46;;;;;;;1.00;1.00;;;7.50;74.10;6.80;99177.00;;;;5116295;28;20683;-80
2022/04/29 03:53:13;;;;;;;0.87;0.87;;;7.50;74.30;6.70;99161.00;;;;5135278;28;20295;-81
2022/04/29 03:55:39;;;;;;;1.37;1.27;;;7.50;74.60;6.80;99176.00;;;;5135582;28;20220;-80
2022/04/29 03:58:09;;;;;;;1.63;1.27;;;7.50;74.90;6.80;99170.00;;;;5134208;28;20227;-80
2022/04/29 04:00:35;;;;;;;1.00;1.00;;;7.50;75.20;6.60;99180.00;;;;5134400;28;20292;-80
2022/04/29 04:03:05;;;;;;;0.93;0.93;;;7.40;75.50;6.80;99181.00;;;;5134107;28;20194;-79
2022/04/29 04:05:32;;;;;;;1.00;1.00;;;7.50;76.20;6.80;99168.00;;;;5136307;27;20635;-80
2022/04/29 04:07:59;;;;;;;1.10;1.10;;;7.50;75.70;6.70;99171.00;;;;5137897;28;20247;-81
2022/04/29 04:10:26;;;;;;;0.70;0.70;;;7.50;75.70;6.70;99174.00;;;;5137634;28;20277;-80
2022/04/29 04:12:55;;;;;;;1.00;1.00;;;7.40;75.70;6.80;99150.00;;;;5137917;28;20255;-79
2022/04/29 04:15:23;;;;;;;0.83;0.83;;;7.50;75.70;6.60;99183.00;;;;5137600;28;20627;-79
2022/04/29 04:17:51;;;;;;;5.50;1.77;;;7.40;75.00;6.60;99181.00;;;;5137935;28;20626;-79
2022/04/29 04:20:18;;;;;;;1.13;1.13;;;7.40;76.00;6.60;99148.00;;;;5137686;28;20283;-81
2022/04/29 04:22:45;;;;;;;1.40;1.13;;;7.40;75.90;6.70;99187.00;;;;5137467;28;20688;-80
2022/04/29 04:25:14;;;;;;;1.57;1.47;;;7.40;75.20;6.70;99181.00;;;;5119469;28;20670;-80
2022/04/29 04:27:41;;;;;;;0.80;0.80;;;7.40;74.90;6.60;99195.00;;;;5119209;28;20286;-80
2022/04/29 04:30:10;;;;;;;0.83;0.83;;;7.40;75.90;6.70;99171.00;;;;5137358;28;20341;-80
2022/04/29 04:32:39;;;;;;;1.20;1.20;;;7.40;75.50;6.80;99212.00;;;;5138145;28;20531;-80
2022/04/29 04:35:07;;;;;;;0.70;0.70;;;7.50;75.50;6.80;99207.00;;;;5137205;28;20209;-80
2022/04/29 04:37:33;;;;;;;0.90;0.90;;;7.50;74.80;6.90;99203.00;;;;5137412;28;20231;-78
2022/04/29 04:40:03;;;;;;;0.93;0.93;;;7.60;75.20;6.80;99206.00;;;;5137218;28;20221;-78
2022/04/29 04:42:29;;;;;;;1.00;1.00;;;7.50;74.30;6.90;99215.00;;;;5137192;28;20221;-78
2022/04/29 04:44:55;;;;;;;1.17;1.17;;;7.60;74.90;6.90;99220.00;;;;5137037;28;20213;-79
2022/04/29 04:47:22;;;;;;;0.90;0.90;;;7.60;74.80;6.90;99204.00;;;;5137209;28;20280;-79
2022/04/29 04:49:49;;;;;;;1.00;1.00;;;7.60;74.10;6.90;99211.00;;;;5137112;28;20200;-79
2022/04/29 04:52:16;;;;;;;1.23;1.23;;;7.60;74.10;6.80;99212.00;;;;5137089;28;20219;-79
2022/04/29 04:54:42;;;;;;;1.10;1.10;;;7.60;74.50;6.80;99202.00;;;;5137008;28;20189;-79
2022/04/29 04:57:08;;;;;;;0.90;0.90;;;7.60;75.40;7.10;99205.00;;;;5136833;28;20224;-79
2022/04/29 04:59:35;;;;;;;0.90;0.90;;;7.70;74.50;7.00;99204.00;;;;5137096;28;20205;-79
2022/04/29 05:02:02;;;;;;;1.13;1.10;;;7.70;74.20;7.10;99199.00;;;;5137088;28;20227;-80
2022/04/29 05:04:28;;;;;;;0.97;0.97;;;7.80;74.90;7.10;99205.00;;;;5136877;28;20258;-79
2022/04/29 05:06:56;;;;;;;1.67;1.57;;;7.80;74.60;7.20;99213.00;;;;5119354;28;20232;-79
2022/04/29 05:09:22;;;;;;;0.90;0.90;;;7.80;74.70;7.30;99215.00;;;;5136702;28;20366;-78
2022/04/29 05:11:49;;;;;;;1.00;1.00;;;7.90;74.60;7.30;99219.00;;;;5136717;28;20236;-80
2022/04/29 05:14:15;;;;;;;0.90;0.90;;;8.00;73.90;7.40;99216.00;;;;5136597;28;20236;-79
2022/04/29 05:16:42;;;;;;;0.80;0.80;;;8.10;74.20;7.40;99215.00;;;;5135929;27;20277;-79
2022/04/29 05:19:09;;;;;;;1.07;1.07;;;8.10;74.30;7.50;99207.00;;;;5136842;28;20255;-80
2022/04/29 05:21:35;;;;;;;0.70;0.70;;;8.10;75.10;7.60;99222.00;;;;5138214;28;20200;-80
2022/04/29 05:24:03;;;;;;;1.37;1.30;;;8.20;74.20;7.60;99217.00;;;;5136509;28;20225;-80
2022/04/29 05:26:29;;;;;;;0.93;0.93;;;8.30;74.10;7.60;99217.00;;;;5136622;28;20648;-80
2022/04/29 05:28:58;;;;;;;2.30;2.10;;;8.30;73.30;7.70;99216.00;;;;5137110;28;20282;-79
2022/04/29 05:31:24;;;;;;;1.10;1.10;;;8.30;73.60;7.70;99215.00;;;;5138089;28;20224;-79
2022/04/29 05:33:51;;;;;;;10.57;2.07;;;8.40;73.50;7.90;99224.00;;;;5144962;28;20197;-80
2022/04/29 05:36:18;;;;;;;1.90;1.80;;;8.40;74.20;7.90;99226.00;;;;5141769;28;20217;-80
2022/04/29 05:44:17;;;;;;;1.53;1.43;;;8.70;72.70;8.20;99225.00;;;;5136172;28;20235;-79
2022/04/29 05:46:46;;;;;;;1.53;1.03;;;8.70;73.20;8.20;99225.00;;;;5136164;28;20585;-80
2022/04/29 05:49:15;;;;;;;1.20;1.20;;;8.80;71.30;8.10;99235.00;;;;5136111;28;20209;-79
2022/04/29 05:51:41;;;;;;;1.90;1.80;;;8.80;71.00;8.30;99239.00;;;;5136071;28;20573;-79
2022/04/29 05:54:08;;;;;;;1.03;1.03;;;8.90;70.40;8.30;99237.00;;;;5118173;28;20201;-79
2022/04/29 05:56:35;;;;;;;2.93;1.70;;;8.90;70.30;8.50;99242.00;;;;5136233;28;20228;-79
2022/04/29 05:59:04;;;;;;;1.23;1.23;;;9.10;70.10;8.60;99241.00;;;;5136225;28;20637;-79
2022/04/29 06:01:30;;;;;;;1.00;1.00;;;9.20;69.60;8.60;99244.00;;;;5136265;28;20201;-79
2022/04/29 06:03:57;;;;;;;1.20;1.20;;;9.30;69.20;8.80;99241.00;;;;5136359;28;20274;-79
2022/04/29 06:06:23;;;;;;;1.70;1.47;;;9.40;69.30;8.90;99237.00;;;;5136018;28;20277;-78
2022/04/29 06:08:50;;;;;;;1.23;1.23;;;9.50;68.60;9.10;99238.00;;;;5135848;28;20633;-80
2022/04/29 06:11:17;;;;;;;1.13;1.13;;;9.60;68.60;9.10;99234.00;;;;5135804;28;20204;-80
2022/04/29 06:13:45;;;;;;;1.20;1.20;;;9.70;68.60;9.30;99238.00;;;;5136300;28;20197;-80
2022/04/29 06:16:11;;;;;;;1.50;1.40;;;9.80;68.70;9.40;99233.00;;;;5135972;28;20233;-80
2022/04/29 06:18:38;;;;;;;0.70;0.70;;;9.90;68.30;9.50;99235.00;;;;5135845;28;20247;-81
2022/04/29 06:21:04;;;;;;;2.20;1.67;;;10.00;68.80;9.60;99231.00;;;;5135760;28;20237;-80
2022/04/29 06:23:31;;;;;;;4.13;2.20;;;10.20;68.70;9.90;99234.00;;;;5135885;28;20304;-80
2022/04/29 06:25:58;;;;;;;2.13;2.03;;;10.30;68.10;10.00;99246.00;;;;5135976;28;20487;-80
2022/04/29 06:28:25;;;;;;;1.27;1.27;;;;;10.20;99244.00;;;;5134509;27;20221;-79
2022/04/29 06:30:52;;;;;;;1.00;1.00;;;10.60;66.70;10.30;99241.00;;;;5135612;28;20523;-80
2022/04/29 06:33:20;;;;;;;1.67;1.53;;;10.70;67.40;10.40;99241.00;;;;5135488;28;20217;-80
2022/04/29 06:35:50;;;;;;;1.10;1.10;;;;;10.50;99238.00;;;;5135251;28;20283;-79
2022/04/29 06:38:17;;;;;;;0.83;0.83;;;11.00;67.10;10.70;99238.00;;;;5135180;28;20270;-78
2022/04/29 06:40:43;;;;;;;1.47;1.40;;;11.40;66.00;10.90;99232.00;;;;5135264;28;20197;-79
2022/04/29 06:43:12;;;;;;;1.37;1.23;;;11.40;66.60;11.00;99234.00;;;;5135030;28;20553;-79
2022/04/29 06:45:41;;;;;;;2.37;2.27;;;11.50;65.10;11.10;99243.00;;;;5135334;28;20201;-82
2022/04/29 06:48:09;;;;;;;1.50;1.50;;;11.60;64.20;11.20;99246.00;;;;5135600;28;20224;-80
2022/04/29 06:50:35;;;;;;;1.27;1.27;;;11.80;64.30;11.30;99237.00;;;;5135225;28;20273;-80
2022/04/29 06:53:04;;;;;;;1.27;1.27;;;11.80;64.90;11.50;99222.00;;;;5135121;28;20258;-79
2022/04/29 06:55:32;;;;;;;4.30;1.00;;;12.00;65.50;11.60;99231.00;;;;5117685;28;20315;-75
2022/04/29 06:57:58;;;;;;;2.63;1.53;;;12.10;64.40;11.70;99227.00;;;;5138843;28;20247;-76
2022/04/29 07:00:25;;;;;;;2.17;1.73;;;12.30;64.10;11.90;99233.00;;;;5147126;28;20279;-76
2022/04/29 07:02:52;;;;;;;1.20;1.20;;;12.40;64.00;12.00;99231.00;;;;5141409;28;20712;-76
2022/04/29 07:05:19;;;;;;;2.53;2.33;;;12.50;63.30;12.10;99231.00;;;;5135913;28;20759;-75
2022/04/29 07:07:49;;;;;;;1.83;1.73;;;12.60;64.30;12.20;99236.00;;;;5135381;28;20193;-75
2022/04/29 07:10:17;;;;;;;1.07;1.07;;;12.70;64.70;12.30;99235.00;;;;5135199;28;20565;-75
2022/04/29 07:12:46;;;;;;;2.07;1.97;;;12.80;63.90;12.50;99234.00;;;;5134791;28;20203;-76
2022/04/29 07:15:14;;;;;;;1.97;1.80;;;12.90;64.00;12.50;99231.00;;;;5134824;28;20225;-76
2022/04/29 07:17:41;;;;;;;0.90;0.90;;;13.00;63.90;12.60;99220.00;;;;5134758;28;20259;-77
2022/04/29 07:20:11;;;;;;;0.70;0.70;;;13.10;63.40;12.70;99222.00;;;;5134658;28;20201;-77
2022/04/29 07:22:39;;;;;;;0.80;0.80;;;13.20;63.40;12.90;99222.00;;;;5134569;28;20791;-75
2022/04/29 07:25:08;;;;;;;2.57;2.30;;;13.30;61.10;12.90;99218.00;;;;5134623;28;20189;-76
2022/04/29 07:27:36;;;;;;;1.43;1.43;;;13.50;56.30;13.00;99206.00;;;;5134882;28;20193;-77
2022/04/29 07:30:07;;;;;;;1.53;1.33;;;13.50;56.80;13.20;99199.00;;;;5134853;28;20274;-77
2022/04/29 07:32:34;;;;;;;1.93;1.83;;;13.60;56.30;13.30;99212.00;;;;5134812;28;20222;-74
2022/04/29 07:43:24;;;;;;;1.77;1.67;;;14.10;54.80;13.60;99212.00;;;;5138251;28;20204;-79
2022/04/29 07:45:53;;;;;;;1.13;1.13;;;14.10;54.10;13.60;99210.00;;;;5138111;28;20197;-78
2022/04/29 07:48:22;;;;;;;1.03;1.03;;;14.10;54.20;13.60;99212.00;;;;5137907;28;20316;-76
2022/04/29 07:50:49;;;;;;;2.87;1.57;;;14.10;53.90;13.40;99209.00;;;;5138151;28;20231;-78
2022/04/29 07:53:16;;;;;;;2.20;2.03;;;14.10;53.40;13.40;99208.00;;;;5137749;28;20221;-78
2022/04/29 07:55:43;;;;;;;1.73;1.63;;;14.00;52.30;13.40;99215.00;;;;5119678;28;20219;-76
2022/04/29 07:58:09;;;;;;;3.23;1.10;;;14.00;52.90;13.20;99217.00;;;;5137895;28;20204;-78
2022/04/29 08:00:37;;;;;;;1.17;1.17;;;13.90;53.20;13.20;99195.00;;;;5137896;28;20232;-77
2022/04/29 08:03:06;;;;;;;2.43;2.00;;;13.80;53.60;13.20;99216.00;;;;5138024;28;20204;-78
2022/04/29 08:05:33;;;;;;;1.73;1.63;;;13.80;54.40;13.30;99213.00;;;;5137652;28;20320;-76
2022/04/29 08:08:02;;;;;;;1.00;1.00;;;13.90;54.30;13.40;99208.00;;;;5137970;28;20240;-76
2022/04/29 08:10:31;;;;;;;0.90;0.90;;;14.00;54.60;13.50;99214.00;;;;5137762;28;20201;-77
2022/04/29 08:12:59;;;;;;;1.67;1.57;;;14.20;53.90;13.70;99214.00;;;;5137416;28;20228;-75
2022/04/29 08:15:30;;;;;;;1.73;1.63;;;14.20;54.60;13.80;99226.00;;;;5137563;28;20284;-75
2022/04/29 08:17:58;;;;;;;1.70;1.60;;;14.30;55.30;14.00;99195.00;;;;5137375;28;20201;-78
2022/04/29 08:20:24;;;;;;;0.93;0.93;;;14.50;52.30;14.10;99208.00;;;;5137559;28;20689;-76
2022/04/29 08:22:51;;;;;;;1.40;1.40;;;14.60;49.80;14.20;99211.00;;;;5137684;28;20276;-77
2022/04/29 08:25:19;;;;;;;1.80;1.70;;;14.80;48.10;14.40;99219.00;;;;5137263;28;20519;-75
2022/04/29 08:27:47;;;;;;;1.90;1.80;;;14.80;48.80;14.60;99211.00;;;;5137209;28;20197;-78
2022/04/29 08:30:14;;;;;;;1.40;1.30;;;15.00;47.30;14.70;99215.00;;;;5137329;28;20220;-77
2022/04/29 08:32:44;;;;;;;1.47;1.47;;;15.10;47.30;14.70;99210.00;;;;5137241;28;20232;-77
2022/04/29 08:35:12;;;;;;;2.37;2.17;;;15.20;45.30;15.00;99213.00;;;;5137454;28;20224;-76
2022/04/29 08:37:40;;;;;;;2.37;2.17;;;15.30;46.10;15.20;99204.00;;;;5119389;28;20273;-77
2022/04/29 08:40:09;;;;;;;1.00;1.00;;;15.60;44.30;15.20;99206.00;;;;5137108;28;20224;-75
2022/04/29 08:42:37;;;;;;;1.37;1.37;;;15.70;42.90;15.20;99187.00;;;;5137107;28;20201;-78
2022/04/29 08:45:11;;;;;;;2.03;1.77;;;15.70;42.50;15.50;99201.00;;;;5137175;28;20271;-80
2022/04/29 08:47:39;;;;;;;3.40;1.03;;;;;15.60;99209.00;;;;5119359;28;20262;-78
2022/04/29 08:50:08;;;;;;;1.20;1.20;;;16.00;41.00;15.80;99173.00;;;;5136207;27;20225;-78
2022/04/29 08:52:35;;;;;;;1.77;1.67;;;16.20;39.60;15.90;99199.00;;;;5136934;28;20281;-77
2022/04/29 09:00:38;;;;;;;1.30;1.30;;;16.60;40.00;16.30;99190.00;;;;5118739;28;20257;-77
2022/04/29 09:03:06;;;;;;;2.10;2.00;;;16.80;39.50;16.70;99188.00;;;;5136761;28;20181;-77
2022/04/29 09:05:34;;;;;;;1.00;1.00;;;17.00;39.30;16.80;99187.00;;;;5136641;28;20221;-77
2022/04/29 09:08:04;;;;;;;2.17;2.07;;;17.20;39.20;17.00;99188.00;;;;5136865;28;20206;-76
2022/04/29 09:10:35;;;;;;;0.97;0.97;;;17.40;38.50;17.20;99194.00;;;;5136824;28;20190;-76
2022/04/29 09:13:12;;;;;;;1.67;1.57;;;17.60;38.30;17.50;99178.00;;;;5136570;28;20209;-79
2022/04/29 09:15:50;;;;;;;1.13;1.13;;;17.80;36.70;17.60;99183.00;;;;5136658;28;20193;-78
2022/04/29 09:18:32;;;;;;;1.20;1.20;;;18.00;37.30;17.60;99179.00;;;;5136566;28;20537;-78
2022/04/29 09:20:59;;;;;;;1.33;1.33;;;18.10;35.80;18.00;99181.00;;;;5136440;28;20216;-78
2022/04/29 09:23:27;;;;;;;0.90;0.90;;;18.50;33.50;18.10;99180.00;;;;5136516;28;20548;-76
2022/04/29 09:25:56;;;;;;;1.13;1.13;;;18.50;34.10;18.30;99179.00;;;;5136415;28;20208;-74
2022/04/29 09:28:24;;;;;;;1.30;1.30;;;18.60;34.40;18.30;99168.00;;;;5136264;28;20221;-76
2022/04/29 09:30:56;;;;;;;1.20;1.20;;;18.80;32.50;18.50;99171.00;;;;5136528;28;20232;-75
2022/04/29 09:33:25;;;;;;;1.67;1.57;;;18.90;32.20;18.70;99139.00;;;;5136212;28;20227;-76
2022/04/29 09:35:53;;;;;;;1.27;1.27;;;19.10;33.00;18.90;99156.00;;;;5136231;28;20276;-76
2022/04/29 09:41:08;;;;;;;1.37;0.93;;;19.40;32.50;19.10;99162.00;;;;5136255;28;20211;-77
2022/04/29 09:43:37;;;;;;;0.70;0.70;;;19.40;32.50;19.00;99154.00;;;;5118314;28;20225;-78
2022/04/29 09:46:17;;;;;;;1.10;1.10;;;19.50;31.70;19.00;99158.00;;;;5117960;28;20288;-78
2022/04/29 09:49:03;;;;;;;2.60;1.27;;;19.40;31.60;19.00;99152.00;;;;5136895;28;20260;-78
2022/04/29 09:51:49;;;;;;;1.30;1.30;;;19.40;31.80;18.80;99150.00;;;;5139149;28;20185;-79
2022/04/29 09:54:20;;;;;;;1.10;1.10;;;19.40;31.40;18.80;99156.00;;;;5137129;28;20292;-79
2022/04/29 09:57:06;;;;;;;1.47;1.37;;;19.40;30.20;19.00;99149.00;;;;5140821;28;20197;-79
2022/04/29 09:59:35;;;;;;;0.97;0.97;;;19.30;29.90;18.90;99147.00;;;;5140318;28;20193;-78
2022/04/29 10:02:06;;;;;;;0.70;0.70;;;19.40;31.30;18.90;99140.00;;;;5140086;27;20221;-80
2022/04/29 10:04:35;;;;;;;1.10;1.10;;;19.40;29.90;19.00;99140.00;;;;5137129;28;20300;-79
2022/04/29 10:07:05;;;;;;;0.83;0.83;;;19.40;29.60;19.00;99113.00;;;;5135835;28;20231;-78
2022/04/29 10:09:35;;;;;;;1.40;0.90;;;19.50;31.20;19.20;99135.00;;;;5135699;28;20307;-78
2022/04/29 10:12:05;;;;;;;1.07;1.07;;;19.50;31.40;19.20;99124.00;;;;5135669;28;20217;-75
2022/04/29 10:14:36;;;;;;;1.00;1.00;;;19.60;31.00;19.50;99107.00;;;;5135473;28;20231;-77
2022/04/29 10:22:50;;;;;;;1.30;1.30;;;20.00;29.40;19.70;99121.00;;;;5135734;28;20224;-78
2022/04/29 10:25:20;;;;;;;1.00;1.00;;;20.10;29.90;19.80;99123.00;;;;5135511;28;20201;-79
2022/04/29 10:27:48;;;;;;;1.07;1.07;;;20.20;30.00;19.90;99125.00;;;;5135524;28;20496;-77
2022/04/29 10:30:24;;;;;;;1.13;1.13;;;20.20;29.00;20.10;99129.00;;;;5135497;28;20615;-77
2022/04/29 10:33:05;;;;;;;0.83;0.83;;;20.40;30.20;20.20;99118.00;;;;5135410;28;20193;-78
2022/04/29 10:35:50;;;;;;;0.90;0.90;;;20.50;29.20;20.20;99115.00;;;;5135365;28;20197;-78
2022/04/29 10:38:25;;;;;;;0.50;0.50;;;20.70;28.20;20.40;99110.00;;;;5135615;28;20301;-77
2022/04/29 10:41:17;;;;;;;2.03;1.83;;;20.70;28.10;20.70;99111.00;;;;5135174;28;20666;-77
2022/04/29 10:44:04;;;;;;;1.03;1.03;;;21.00;28.70;20.90;99109.00;;;;5135323;28;20197;-77
2022/04/29 10:46:35;;;;;;;0.85;0.85;;;21.20;28.90;21.40;99109.00;;;;5135193;28;20553;-78
2022/04/29 10:49:23;;;;;;;2.67;1.55;;;21.50;29.10;21.60;99107.00;;;;5135397;28;20231;-78
2022/04/29 10:51:51;;;;;;;0.85;0.85;;;21.80;27.60;21.80;99095.00;;;;5135081;28;20219;-76
2022/04/29 10:54:42;;;;;;;1.15;1.08;;;22.10;27.00;21.90;99097.00;;;;5135179;28;20221;-78
2022/04/29 10:57:12;;;;;;;1.13;1.10;;;22.20;27.00;22.20;99094.00;;;;5135104;28;20205;-78
2022/04/29 10:59:57;;;;;;;1.02;1.02;;;22.50;26.60;22.30;99094.00;;;;5135275;28;20727;-79
2022/04/29 11:02:29;;;;;;;1.17;1.13;;;22.70;26.00;22.70;99096.00;;;;5117135;28;20606;-78
2022/04/29 11:04:58;;;;;;;1.63;1.52;;;22.90;26.40;22.90;99094.00;;;;5134952;28;20277;-77
2022/04/29 11:07:42;;;;;;;0.98;0.80;;;23.00;25.00;22.80;99093.00;;;;5134831;28;20293;-79
2022/04/29 11:10:17;;;;;;;3.15;2.17;;;23.00;26.40;22.40;99097.00;;;;5134792;28;20224;-78
2022/04/29 11:12:57;;;;;;;0.70;0.70;;;22.80;23.50;22.30;99088.00;;;;5134599;27;20235;-75
2022/04/29 11:15:42;;;;;;;0.73;0.73;;;22.70;24.80;22.10;99092.00;;;;5134898;28;20620;-75
2022/04/29 11:18:19;;;;;;;0.90;0.90;;;22.60;23.90;22.10;99083.00;;;;5134681;28;20178;-75
2022/04/29 11:20:48;;;;;;;0.68;0.68;;;22.40;22.80;21.90;99083.00;;;;5134766;28;20205;-77
2022/04/29 11:26:11;;;;;;;0.70;0.70;;;22.20;24.30;21.60;99080.00;;;;5134690;28;20233;-77
2022/04/29 11:28:38;;;;;;;0.80;0.80;;;22.00;22.20;21.30;99083.00;;;;5134796;28;20254;-77
2022/04/29 11:31:08;;;;;;;0.88;0.88;;;21.90;23.30;21.50;99078.00;;;;5134778;28;20276;-77
2022/04/29 11:33:35;;;;;;;1.67;1.58;;;21.90;24.30;21.50;99082.00;;;;5134739;28;20216;-74
2022/04/29 11:36:06;;;;;;;0.93;0.93;;;21.90;23.80;21.40;99074.00;;;;5142261;28;20276;-72
2022/04/29 11:38:41;;;;;;;1.75;1.63;;;21.80;25.50;21.60;99070.00;;;;5141757;28;20289;-75
2022/04/29 11:41:08;;;;;;;1.08;1.05;;;21.90;24.60;21.60;99067.00;;;;5134449;28;20206;-77
2022/04/29 11:43:34;;;;;;;0.60;0.60;;;22.00;24.90;21.60;99060.00;;;;5116516;28;20193;-75
2022/04/29 11:46:08;;;;;;;0.60;0.60;;;22.00;25.10;21.60;99067.00;;;;5134893;28;20235;-76